Sacramento, California
Traffic Map
Current Weather Conditions
Sacramento, California
Clear Haze
Clear
41°
Feels Like: 41°
Wind Chill: 41° Ceiling: Unl
Heat Index: 41° Visibility: 0.75mi
Dew Point: 39° Wind: 0mph
Humidity: 93% Direction: ° ()
Pressure: 30.34in Gusts: 0mph
Raw Report DataKSAC 240909Z AUTO 00000KT 3/4SM BR CLR 05/04 A3034 RMK AO2
Traffic Incident Summary
Active as of:
Severity:
Category:
InformationThere was an issue retrieving the traffic information for this location. Please try a different location or try again shortly.
Advertisements
Track Severe Weather on mobile